Time,TemperatureF,DewpointF,PressureIn,WindDirection,WindDirectionDegrees,WindSpeedMPH,WindSpeedGustMPH,Humidity,HourlyPrecipIn,Conditions,Clouds,dailyrainin,SoftwareType,DateUTC
2013-08-30 00:06:00,73.7,70.0,29.91,North,6,0.0,-999.0,89,-99.99,,,0.00,weatherlink.com 1.10,2013-08-30 04:06:00,
2013-08-30 00:21:00,73.5,71.0,29.91,NNE,21,0.0,-999.0,90,-99.99,,,0.00,weatherlink.com 1.10,2013-08-30 04:21:00,
2013-08-30 00:36:00,73.5,71.0,29.91,North,4,0.0,-999.0,90,-99.99,,,0.00,weatherlink.com 1.10,2013-08-30 04:36:00,
2013-08-30 00:51:00,73.2,71.0,29.91,NE,51,0.0,-999.0,91,-99.99,,,0.00,weatherlink.com 1.10,2013-08-30 04:51:00,
2013-08-30 01:06:00,73.0,70.0,29.90,NNE,21,0.0,-999.0,91,-99.99,,,0.00,weatherlink.com 1.10,2013-08-30 05:06:00,
2013-08-30 01:21:00,73.0,70.0,29.90,North,10,0.0,-999.0,91,-99.99,,,0.00,weatherlink.com 1.10,2013-08-30 05:21:00,
2013-08-30 01:36:00,72.8,70.0,29.90,NNE,23,0.0,-999.0,91,-99.99,,,0.00,weatherlink.com 1.10,2013-08-30 05:36:00,
2013-08-30 01:51:00,72.7,70.0,29.89,North,6,0.0,-999.0,92,-99.99,,,0.00,weatherlink.com 1.10,2013-08-30 05:51:00,
2013-08-30 02:06:00,72.3,70.0,29.89,North,1,0.0,-999.0,92,-99.99,,,0.00,weatherlink.com 1.10,2013-08-30 06:06:00,
2013-08-30 02:21:00,72.0,70.0,29.89,North,0,0.0,-999.0,92,-99.99,,,0.00,weatherlink.com 1.10,2013-08-30 06:21:00,
2013-08-30 02:36:00,71.8,69.0,29.89,NNE,24,0.0,-999.0,92,-99.99,,,0.00,weatherlink.com 1.10,2013-08-30 06:36:00,
2013-08-30 02:51:00,71.6,69.0,29.89,North,8,0.0,-999.0,92,-99.99,,,0.00,weatherlink.com 1.10,2013-08-30 06:51:00,
2013-08-30 03:06:00,71.5,69.0,29.89,North,8,0.0,-999.0,93,-99.99,,,0.00,weatherlink.com 1.10,2013-08-30 07:06:00,
2013-08-30 03:21:00,71.1,69.0,29.89,North,1,0.0,-999.0,93,-99.99,,,0.00,weatherlink.com 1.10,2013-08-30 07:21:00,
2013-08-30 03:36:00,71.1,69.0,29.89,North,10,0.0,-999.0,94,-99.99,,,0.00,weatherlink.com 1.10,2013-08-30 07:36:00,
2013-08-30 03:51:00,71.1,69.0,29.89,North,0,1.0,-999.0,94,-99.99,,,0.00,weatherlink.com 1.10,2013-08-30 07:51:00,
2013-08-30 04:06:00,71.1,69.0,29.89,North,6,0.0,-999.0,94,-99.99,,,0.00,weatherlink.com 1.10,2013-08-30 08:06:00,
2013-08-30 04:21:00,70.9,69.0,29.89,North,3,0.0,-999.0,94,-99.99,,,0.00,weatherlink.com 1.10,2013-08-30 08:21:00,
2013-08-30 04:36:00,70.8,69.0,29.89,NNE,16,0.0,-999.0,95,-99.99,,,0.00,weatherlink.com 1.10,2013-08-30 08:36:00,
2013-08-30 04:51:00,70.9,70.0,29.90,NNE,17,0.0,-999.0,95,-99.99,,,0.00,weatherlink.com 1.10,2013-08-30 08:51:00,
2013-08-30 05:06:00,70.9,70.0,29.90,North,4,0.0,-999.0,95,-99.99,,,0.00,weatherlink.com 1.10,2013-08-30 09:06:00,
2013-08-30 05:21:00,70.8,69.0,29.90,North,0,0.0,-999.0,95,-99.99,,,0.00,weatherlink.com 1.10,2013-08-30 09:21:00,
2013-08-30 05:36:00,70.4,69.0,29.91,NNW,339,0.0,-999.0,95,-99.99,,,0.00,weatherlink.com 1.10,2013-08-30 09:36:00,
2013-08-30 05:51:00,69.8,68.0,29.91,NNW,343,0.0,-999.0,95,-99.99,,,0.00,weatherlink.com 1.10,2013-08-30 09:51:00,
2013-08-30 06:06:00,69.4,68.0,29.91,NNW,343,0.0,-999.0,95,-99.99,,,0.00,weatherlink.com 1.10,2013-08-30 10:06:00,
2013-08-30 06:21:00,69.1,68.0,29.92,North,356,0.0,-999.0,95,-99.99,,,0.00,weatherlink.com 1.10,2013-08-30 10:21:00,
2013-08-30 06:36:00,69.1,68.0,29.92,North,356,0.0,-999.0,96,-99.99,,,0.00,weatherlink.com 1.10,2013-08-30 10:36:00,
2013-08-30 06:51:00,69.3,68.0,29.92,North,356,0.0,-999.0,96,-99.99,,,0.00,weatherlink.com 1.10,2013-08-30 10:51:00,
2013-08-30 07:06:00,69.9,69.0,29.93,North,4,0.0,-999.0,96,-99.99,,,0.00,weatherlink.com 1.10,2013-08-30 11:06:00,
2013-08-30 07:21:00,70.4,69.0,29.93,North,10,0.0,-999.0,96,-99.99,,,0.00,weatherlink.com 1.10,2013-08-30 11:21:00,
2013-08-30 07:36:00,70.8,70.0,29.94,North,0,0.0,-999.0,96,-99.99,,,0.00,weatherlink.com 1.10,2013-08-30 11:36:00,
2013-08-30 07:51:00,71.3,70.0,29.93,North,4,0.0,-999.0,96,-99.99,,,0.00,weatherlink.com 1.10,2013-08-30 11:51:00,
2013-08-30 08:06:00,72.3,71.0,29.94,North,0,0.0,-999.0,96,-99.99,,,0.00,weatherlink.com 1.10,2013-08-30 12:06:00,
2013-08-30 08:21:00,72.8,71.0,29.95,North,0,0.0,-999.0,95,-99.99,,,0.00,weatherlink.com 1.10,2013-08-30 12:21:00,
2013-08-30 08:36:00,73.5,72.0,29.94,North,350,8.0,-999.0,94,-99.99,,,0.00,weatherlink.com 1.10,2013-08-30 12:36:00,
2013-08-30 08:51:00,74.2,72.0,29.95,NNE,13,4.0,-999.0,92,-99.99,,,0.00,weatherlink.com 1.10,2013-08-30 12:51:00,
2013-08-30 09:06:00,75.1,72.0,29.95,North,8,0.0,-999.0,90,-99.99,,,0.00,weatherlink.com 1.10,2013-08-30 13:06:00,
2013-08-30 09:21:00,76.0,73.0,29.96,NNE,27,0.0,-999.0,90,-99.99,,,0.00,weatherlink.com 1.10,2013-08-30 13:21:00,
2013-08-30 09:36:00,76.5,72.0,29.96,North,0,4.0,-999.0,85,-99.99,,,0.00,weatherlink.com 1.10,2013-08-30 13:36:00,
2013-08-30 09:51:00,77.2,72.0,29.96,NE,41,10.0,-999.0,83,-99.99,,,0.00,weatherlink.com 1.10,2013-08-30 13:51:00,
2013-08-30 10:06:00,78.1,71.0,29.96,ENE,73,1.0,-999.0,78,-99.99,,,0.00,weatherlink.com 1.10,2013-08-30 14:06:00,
2013-08-30 10:21:00,79.4,71.0,29.96,North,357,0.0,-999.0,76,-99.99,,,0.00,weatherlink.com 1.10,2013-08-30 14:21:00,
2013-08-30 10:36:00,79.6,70.0,29.97,ENE,59,0.0,-999.0,73,-99.99,,,0.00,weatherlink.com 1.10,2013-08-30 14:36:00,
2013-08-30 10:51:00,79.9,71.0,29.96,North,10,2.0,-999.0,75,-99.99,,,0.00,weatherlink.com 1.10,2013-08-30 14:51:00,
2013-08-30 11:06:00,79.9,71.0,29.96,NE,47,2.0,-999.0,75,-99.99,,,0.00,weatherlink.com 1.10,2013-08-30 15:06:00,
2013-08-30 11:21:00,80.3,71.0,29.96,NE,45,0.0,-999.0,73,-99.99,,,0.00,weatherlink.com 1.10,2013-08-30 15:21:00,
2013-08-30 11:36:00,80.9,72.0,29.96,ESE,107,1.0,-999.0,73,-99.99,,,0.00,weatherlink.com 1.10,2013-08-30 15:36:00,
2013-08-30 11:51:00,81.4,70.0,29.95,NE,41,0.0,-999.0,69,-99.99,,,0.00,weatherlink.com 1.10,2013-08-30 15:51:00,
2013-08-30 12:06:00,82.0,70.0,29.95,NNE,32,0.0,-999.0,68,-99.99,,,0.00,weatherlink.com 1.10,2013-08-30 16:06:00,
2013-08-30 12:21:00,82.8,71.0,29.95,East,99,8.0,-999.0,68,-99.99,,,0.00,weatherlink.com 1.10,2013-08-30 16:21:00,
2013-08-30 12:36:00,82.8,71.0,29.95,East,99,0.0,-999.0,67,-99.99,,,0.00,weatherlink.com 1.10,2013-08-30 16:36:00,
2013-08-30 12:51:00,83.2,72.0,29.94,SSE,158,0.0,-999.0,69,-99.99,,,0.00,weatherlink.com 1.10,2013-08-30 16:51:00,
2013-08-30 13:06:00,83.0,72.0,29.93,ESE,116,0.0,-999.0,69,-99.99,,,0.00,weatherlink.com 1.10,2013-08-30 17:06:00,
2013-08-30 13:21:00,82.6,72.0,29.94,ESE,117,7.0,-999.0,71,-99.99,,,0.00,weatherlink.com 1.10,2013-08-30 17:21:00,
2013-08-30 13:36:00,82.2,72.0,29.93,SE,128,7.0,-999.0,72,-99.99,,,0.00,weatherlink.com 1.10,2013-08-30 17:36:00,
2013-08-30 13:51:00,83.0,72.0,29.93,ESE,103,4.0,-999.0,70,-99.99,,,0.00,weatherlink.com 1.10,2013-08-30 17:51:00,
2013-08-30 14:06:00,83.6,72.0,29.93,East,88,4.0,-999.0,68,-99.99,,,0.00,weatherlink.com 1.10,2013-08-30 18:06:00,
2013-08-30 14:21:00,82.8,71.0,29.92,ESE,107,1.0,-999.0,68,-99.99,,,0.00,weatherlink.com 1.10,2013-08-30 18:21:00,
2013-08-30 14:36:00,82.4,72.0,29.92,ESE,107,6.0,-999.0,71,-99.99,,,0.00,weatherlink.com 1.10,2013-08-30 18:36:00,
2013-08-30 14:51:00,82.0,72.0,29.92,ESE,116,8.0,-999.0,72,-99.99,,,0.00,weatherlink.com 1.10,2013-08-30 18:51:00,
2013-08-30 15:06:00,81.6,72.0,29.92,ESE,112,9.0,-999.0,73,-99.99,,,0.00,weatherlink.com 1.10,2013-08-30 19:06:00,
2013-08-30 15:21:00,82.0,73.0,29.91,ESE,123,8.0,-999.0,73,-99.99,,,0.00,weatherlink.com 1.10,2013-08-30 19:21:00,
2013-08-30 15:36:00,81.8,72.0,29.91,SE,130,11.0,-999.0,73,-99.99,,,0.00,weatherlink.com 1.10,2013-08-30 19:36:00,
2013-08-30 15:51:00,81.8,72.0,29.91,ESE,107,8.0,-999.0,73,-99.99,,,0.00,weatherlink.com 1.10,2013-08-30 19:51:00,
2013-08-30 16:06:00,81.6,73.0,29.91,ESE,114,7.0,-999.0,74,-99.99,,,0.00,weatherlink.com 1.10,2013-08-30 20:06:00,
2013-08-30 16:21:00,81.6,73.0,29.91,East,100,7.0,-999.0,74,-99.99,,,0.00,weatherlink.com 1.10,2013-08-30 20:21:00,
2013-08-30 16:36:00,82.2,71.0,29.91,ESE,117,4.0,-999.0,69,-99.99,,,0.00,weatherlink.com 1.10,2013-08-30 20:36:00,
2013-08-30 16:51:00,82.4,72.0,29.91,East,79,6.0,-999.0,70,-99.99,,,0.00,weatherlink.com 1.10,2013-08-30 20:51:00,
2013-08-30 17:06:00,82.0,70.0,29.91,East,86,7.0,-999.0,68,-99.99,,,0.00,weatherlink.com 1.10,2013-08-30 21:06:00,
2013-08-30 17:21:00,82.4,71.0,29.91,East,88,0.0,-999.0,69,-99.99,,,0.00,weatherlink.com 1.10,2013-08-30 21:21:00,
2013-08-30 17:36:00,82.8,71.0,29.91,NE,52,4.0,-999.0,67,-99.99,,,0.00,weatherlink.com 1.10,2013-08-30 21:36:00,
2013-08-30 17:51:00,82.4,71.0,29.91,East,96,4.0,-999.0,68,-99.99,,,0.00,weatherlink.com 1.10,2013-08-30 21:51:00,
2013-08-30 18:06:00,81.8,71.0,29.91,NE,54,1.0,-999.0,69,-99.99,,,0.00,weatherlink.com 1.10,2013-08-30 22:06:00,
2013-08-30 18:36:00,81.4,71.0,29.91,East,79,0.0,-999.0,71,-99.99,,,0.00,weatherlink.com 1.10,2013-08-30 22:36:00,
2013-08-30 18:51:00,80.9,71.0,29.90,ESE,102,0.0,-999.0,72,-99.99,,,0.00,weatherlink.com 1.10,2013-08-30 22:51:00,
2013-08-30 19:06:00,79.9,71.0,29.90,ESE,121,0.0,-999.0,74,-99.99,,,0.00,weatherlink.com 1.10,2013-08-30 23:06:00,
2013-08-30 19:21:00,79.6,72.0,29.91,ESE,117,0.0,-999.0,77,-99.99,,,0.00,weatherlink.com 1.10,2013-08-30 23:21:00,
2013-08-30 19:36:00,79.2,72.0,29.91,East,90,0.0,-999.0,79,-99.99,,,0.00,weatherlink.com 1.10,2013-08-30 23:36:00,
2013-08-30 19:51:00,79.0,72.0,29.91,East,99,0.0,-999.0,80,-99.99,,,0.00,weatherlink.com 1.10,2013-08-30 23:51:00,
2013-08-30 20:06:00,78.8,73.0,29.91,ESE,116,0.0,-999.0,82,-99.99,,,0.00,weatherlink.com 1.10,2013-08-31 00:06:00,
2013-08-30 20:21:00,78.5,73.0,29.91,SE,134,0.0,-999.0,83,-99.99,,,0.00,weatherlink.com 1.10,2013-08-31 00:21:00,
2013-08-30 20:36:00,78.5,73.0,29.91,ESE,106,0.0,-999.0,84,-99.99,,,0.00,weatherlink.com 1.10,2013-08-31 00:36:00,
2013-08-30 20:51:00,78.3,73.0,29.92,ESE,103,0.0,-999.0,84,-99.99,,,0.00,weatherlink.com 1.10,2013-08-31 00:51:00,
2013-08-30 21:06:00,78.5,74.0,29.92,SE,127,0.0,-999.0,85,-99.99,,,0.00,weatherlink.com 1.10,2013-08-31 01:06:00,
2013-08-30 21:21:00,78.1,73.0,29.92,East,92,0.0,-999.0,84,-99.99,,,0.00,weatherlink.com 1.10,2013-08-31 01:21:00,
2013-08-30 21:36:00,78.1,73.0,29.92,ESE,116,0.0,-999.0,84,-99.99,,,0.00,weatherlink.com 1.10,2013-08-31 01:36:00,
2013-08-30 21:51:00,78.1,73.0,29.92,SE,126,0.0,-999.0,84,-99.99,,,0.00,weatherlink.com 1.10,2013-08-31 01:51:00,
2013-08-30 22:06:00,77.9,73.0,29.92,East,95,0.0,-999.0,85,-99.99,,,0.00,weatherlink.com 1.10,2013-08-31 02:06:00,
2013-08-30 22:21:00,77.9,74.0,29.92,East,95,0.0,-999.0,87,-99.99,,,0.00,weatherlink.com 1.10,2013-08-31 02:21:00,
2013-08-30 22:36:00,77.6,74.0,29.92,East,92,0.0,-999.0,87,-99.99,,,0.00,weatherlink.com 1.10,2013-08-31 02:36:00,
2013-08-30 22:51:00,77.4,74.0,29.92,East,90,0.0,-999.0,88,-99.99,,,0.00,weatherlink.com 1.10,2013-08-31 02:51:00,
2013-08-30 23:06:00,77.4,74.0,29.92,ENE,75,0.0,-999.0,88,-99.99,,,0.00,weatherlink.com 1.10,2013-08-31 03:06:00,
2013-08-30 23:21:00,76.8,73.0,29.91,ENE,75,0.0,-999.0,88,-99.99,,,0.00,weatherlink.com 1.10,2013-08-31 03:21:00,
2013-08-30 23:36:00,76.3,73.0,29.91,ENE,75,0.0,-999.0,89,-99.99,,,0.00,weatherlink.com 1.10,2013-08-31 03:36:00,
2013-08-30 23:51:00,76.0,73.0,29.91,ENE,75,0.0,-999.0,90,-99.99,,,0.00,weatherlink.com 1.10,2013-08-31 03:51:00,